sensor_id;sensor_type;location;lat;lon;timestamp;P1;durP1;ratioP1;P2;durP2;ratioP2
69161;SDS011;56269;51.738;21.652;2022-11-25T00:02:03;165.88;;;17.90;;
69161;SDS011;56269;51.738;21.652;2022-11-25T00:04:47;149.45;;;18.35;;
69161;SDS011;56269;51.738;21.652;2022-11-25T00:07:34;113.97;;;15.35;;
69161;SDS011;56269;51.738;21.652;2022-11-25T00:10:19;67.17;;;11.53;;
69161;SDS011;56269;51.738;21.652;2022-11-25T00:13:04;121.10;;;15.10;;
69161;SDS011;56269;51.738;21.652;2022-11-25T00:15:48;107.30;;;16.08;;
69161;SDS011;56269;51.738;21.652;2022-11-25T00:18:34;97.18;;;15.15;;
69161;SDS011;56269;51.738;21.652;2022-11-25T00:21:19;97.28;;;14.18;;
69161;SDS011;56269;51.738;21.652;2022-11-25T00:24:06;58.37;;;12.90;;
69161;SDS011;56269;51.738;21.652;2022-11-25T00:26:51;95.10;;;13.93;;
69161;SDS011;56269;51.738;21.652;2022-11-25T00:29:36;82.97;;;13.05;;
69161;SDS011;56269;51.738;21.652;2022-11-25T00:32:20;112.80;;;13.75;;
69161;SDS011;56269;51.738;21.652;2022-11-25T00:35:06;73.10;;;13.82;;
69161;SDS011;56269;51.738;21.652;2022-11-25T00:37:51;96.00;;;12.97;;
69161;SDS011;56269;51.738;21.652;2022-11-25T00:40:36;110.65;;;14.65;;
69161;SDS011;56269;51.738;21.652;2022-11-25T00:43:20;58.35;;;11.50;;
69161;SDS011;56269;51.738;21.652;2022-11-25T00:46:24;89.40;;;14.60;;
69161;SDS011;56269;51.738;21.652;2022-11-25T00:49:08;76.32;;;13.90;;
69161;SDS011;56269;51.738;21.652;2022-11-25T00:51:53;55.37;;;11.70;;
69161;SDS011;56269;51.738;21.652;2022-11-25T00:54:38;56.80;;;12.55;;
69161;SDS011;56269;51.738;21.652;2022-11-25T00:57:23;44.63;;;10.52;;
69161;SDS011;56269;51.738;21.652;2022-11-25T01:00:09;95.68;;;14.45;;
69161;SDS011;56269;51.738;21.652;2022-11-25T01:02:55;106.57;;;15.10;;
69161;SDS011;56269;51.738;21.652;2022-11-25T01:05:40;143.00;;;17.47;;
69161;SDS011;56269;51.738;21.652;2022-11-25T01:08:25;147.90;;;16.85;;
69161;SDS011;56269;51.738;21.652;2022-11-25T01:11:11;152.13;;;18.25;;
69161;SDS011;56269;51.738;21.652;2022-11-25T01:13:57;187.73;;;17.95;;
69161;SDS011;56269;51.738;21.652;2022-11-25T01:16:41;239.57;;;18.92;;
69161;SDS011;56269;51.738;21.652;2022-11-25T01:19:27;134.07;;;14.63;;
69161;SDS011;56269;51.738;21.652;2022-11-25T01:22:11;203.52;;;17.85;;
69161;SDS011;56269;51.738;21.652;2022-11-25T01:24:56;149.13;;;18.92;;
69161;SDS011;56269;51.738;21.652;2022-11-25T01:27:40;84.45;;;14.35;;
69161;SDS011;56269;51.738;21.652;2022-11-25T01:30:26;169.50;;;18.77;;
69161;SDS011;56269;51.738;21.652;2022-11-25T01:33:11;162.43;;;18.63;;
69161;SDS011;56269;51.738;21.652;2022-11-25T01:35:56;196.73;;;19.95;;
69161;SDS011;56269;51.738;21.652;2022-11-25T01:38:44;202.95;;;19.58;;
69161;SDS011;56269;51.738;21.652;2022-11-25T01:41:33;144.40;;;17.92;;
69161;SDS011;56269;51.738;21.652;2022-11-25T01:44:20;192.10;;;20.45;;
69161;SDS011;56269;51.738;21.652;2022-11-25T01:47:14;171.82;;;19.65;;
69161;SDS011;56269;51.738;21.652;2022-11-25T01:50:08;142.05;;;18.35;;
69161;SDS011;56269;51.738;21.652;2022-11-25T01:52:55;162.60;;;20.98;;
69161;SDS011;56269;51.738;21.652;2022-11-25T01:55:41;103.88;;;17.52;;
69161;SDS011;56269;51.738;21.652;2022-11-25T01:58:31;84.00;;;15.15;;
69161;SDS011;56269;51.738;21.652;2022-11-25T02:01:18;68.70;;;16.73;;
69161;SDS011;56269;51.738;21.652;2022-11-25T02:04:04;105.88;;;17.52;;
69161;SDS011;56269;51.738;21.652;2022-11-25T02:06:51;88.68;;;18.10;;
69161;SDS011;56269;51.738;21.652;2022-11-25T02:09:41;80.50;;;17.13;;
69161;SDS011;56269;51.738;21.652;2022-11-25T02:12:27;71.93;;;14.95;;
69161;SDS011;56269;51.738;21.652;2022-11-25T02:15:13;56.40;;;14.03;;
69161;SDS011;56269;51.738;21.652;2022-11-25T02:17:59;63.33;;;14.57;;
69161;SDS011;56269;51.738;21.652;2022-11-25T02:20:44;67.15;;;15.77;;
69161;SDS011;56269;51.738;21.652;2022-11-25T02:23:38;67.07;;;15.25;;
69161;SDS011;56269;51.738;21.652;2022-11-25T02:26:29;72.75;;;15.05;;
69161;SDS011;56269;51.738;21.652;2022-11-25T02:29:14;70.60;;;16.20;;
69161;SDS011;56269;51.738;21.652;2022-11-25T02:31:59;72.00;;;17.02;;
69161;SDS011;56269;51.738;21.652;2022-11-25T02:34:47;66.50;;;15.57;;
69161;SDS011;56269;51.738;21.652;2022-11-25T02:37:32;54.38;;;13.70;;
69161;SDS011;56269;51.738;21.652;2022-11-25T02:40:17;52.63;;;13.68;;
69161;SDS011;56269;51.738;21.652;2022-11-25T02:43:02;54.40;;;12.77;;
69161;SDS011;56269;51.738;21.652;2022-11-25T02:45:57;57.55;;;12.98;;
69161;SDS011;56269;51.738;21.652;2022-11-25T02:48:50;46.05;;;11.82;;
69161;SDS011;56269;51.738;21.652;2022-11-25T02:51:37;47.22;;;12.43;;
69161;SDS011;56269;51.738;21.652;2022-11-25T02:54:23;53.90;;;13.85;;
69161;SDS011;56269;51.738;21.652;2022-11-25T02:57:08;57.30;;;13.83;;
69161;SDS011;56269;51.738;21.652;2022-11-25T02:59:53;53.72;;;13.20;;
69161;SDS011;56269;51.738;21.652;2022-11-25T03:02:37;62.10;;;15.60;;
69161;SDS011;56269;51.738;21.652;2022-11-25T03:05:23;83.70;;;15.52;;
69161;SDS011;56269;51.738;21.652;2022-11-25T03:08:08;73.85;;;16.85;;
69161;SDS011;56269;51.738;21.652;2022-11-25T03:10:54;86.60;;;16.87;;
69161;SDS011;56269;51.738;21.652;2022-11-25T03:13:39;68.25;;;14.88;;
69161;SDS011;56269;51.738;21.652;2022-11-25T03:16:24;58.90;;;12.65;;
69161;SDS011;56269;51.738;21.652;2022-11-25T03:19:09;51.17;;;12.63;;
69161;SDS011;56269;51.738;21.652;2022-11-25T03:21:54;61.08;;;14.45;;
69161;SDS011;56269;51.738;21.652;2022-11-25T03:24:38;53.90;;;12.23;;
69161;SDS011;56269;51.738;21.652;2022-11-25T03:27:23;51.03;;;13.60;;
69161;SDS011;56269;51.738;21.652;2022-11-25T03:30:13;49.08;;;12.02;;
69161;SDS011;56269;51.738;21.652;2022-11-25T03:33:00;44.97;;;11.10;;
69161;SDS011;56269;51.738;21.652;2022-11-25T03:35:44;52.20;;;12.35;;
69161;SDS011;56269;51.738;21.652;2022-11-25T03:38:32;52.67;;;12.65;;
69161;SDS011;56269;51.738;21.652;2022-11-25T03:41:16;46.30;;;12.50;;
69161;SDS011;56269;51.738;21.652;2022-11-25T03:44:01;48.13;;;11.77;;
69161;SDS011;56269;51.738;21.652;2022-11-25T03:46:46;36.13;;;9.73;;
69161;SDS011;56269;51.738;21.652;2022-11-25T03:49:31;41.63;;;11.45;;
69161;SDS011;56269;51.738;21.652;2022-11-25T03:52:16;37.93;;;10.50;;
69161;SDS011;56269;51.738;21.652;2022-11-25T03:55:01;41.30;;;12.05;;
69161;SDS011;56269;51.738;21.652;2022-11-25T03:57:46;44.08;;;12.73;;
69161;SDS011;56269;51.738;21.652;2022-11-25T04:00:31;45.70;;;12.32;;
69161;SDS011;56269;51.738;21.652;2022-11-25T04:03:17;53.80;;;12.90;;
69161;SDS011;56269;51.738;21.652;2022-11-25T04:06:02;42.13;;;12.13;;
69161;SDS011;56269;51.738;21.652;2022-11-25T04:08:46;49.92;;;12.98;;
69161;SDS011;56269;51.738;21.652;2022-11-25T04:11:32;43.53;;;11.82;;
69161;SDS011;56269;51.738;21.652;2022-11-25T04:14:35;42.75;;;13.00;;
69161;SDS011;56269;51.738;21.652;2022-11-25T04:17:20;35.25;;;9.30;;
69161;SDS011;56269;51.738;21.652;2022-11-25T04:20:05;34.60;;;10.73;;
69161;SDS011;56269;51.738;21.652;2022-11-25T04:22:50;40.35;;;10.63;;
69161;SDS011;56269;51.738;21.652;2022-11-25T04:25:35;42.17;;;11.80;;
69161;SDS011;56269;51.738;21.652;2022-11-25T04:28:20;44.50;;;11.85;;
69161;SDS011;56269;51.738;21.652;2022-11-25T04:31:05;38.72;;;10.57;;
69161;SDS011;56269;51.738;21.652;2022-11-25T04:33:51;46.60;;;11.97;;
69161;SDS011;56269;51.738;21.652;2022-11-25T04:36:35;43.00;;;10.43;;
69161;SDS011;56269;51.738;21.652;2022-11-25T04:39:20;44.67;;;11.48;;
69161;SDS011;56269;51.738;21.652;2022-11-25T04:42:05;45.10;;;13.07;;
69161;SDS011;56269;51.738;21.652;2022-11-25T04:45:10;41.10;;;11.65;;
69161;SDS011;56269;51.738;21.652;2022-11-25T04:47:58;41.63;;;11.30;;
69161;SDS011;56269;51.738;21.652;2022-11-25T04:50:43;41.33;;;12.18;;
69161;SDS011;56269;51.738;21.652;2022-11-25T04:53:28;22.90;;;7.65;;
69161;SDS011;56269;51.738;21.652;2022-11-25T04:59:22;42.08;;;12.23;;
69161;SDS011;56269;51.738;21.652;2022-11-25T05:02:26;41.63;;;11.38;;
69161;SDS011;56269;51.738;21.652;2022-11-25T05:05:12;51.40;;;11.88;;
69161;SDS011;56269;51.738;21.652;2022-11-25T05:07:57;42.92;;;13.13;;
69161;SDS011;56269;51.738;21.652;2022-11-25T05:10:42;30.55;;;9.20;;
69161;SDS011;56269;51.738;21.652;2022-11-25T05:13:27;40.20;;;10.65;;
69161;SDS011;56269;51.738;21.652;2022-11-25T05:16:12;38.03;;;11.00;;
69161;SDS011;56269;51.738;21.652;2022-11-25T05:18:57;36.88;;;9.65;;
69161;SDS011;56269;51.738;21.652;2022-11-25T05:21:42;35.45;;;10.27;;
69161;SDS011;56269;51.738;21.652;2022-11-25T05:24:27;35.97;;;9.50;;
69161;SDS011;56269;51.738;21.652;2022-11-25T05:27:12;36.35;;;10.93;;
69161;SDS011;56269;51.738;21.652;2022-11-25T05:29:57;47.83;;;11.13;;
69161;SDS011;56269;51.738;21.652;2022-11-25T05:32:41;30.85;;;8.57;;
69161;SDS011;56269;51.738;21.652;2022-11-25T05:35:27;28.30;;;9.63;;
69161;SDS011;56269;51.738;21.652;2022-11-25T05:38:12;24.98;;;7.68;;
69161;SDS011;56269;51.738;21.652;2022-11-25T05:41:01;29.13;;;9.90;;
69161;SDS011;56269;51.738;21.652;2022-11-25T05:43:48;31.10;;;8.47;;
69161;SDS011;56269;51.738;21.652;2022-11-25T05:46:33;23.75;;;7.32;;
69161;SDS011;56269;51.738;21.652;2022-11-25T05:49:18;31.95;;;9.77;;
69161;SDS011;56269;51.738;21.652;2022-11-25T05:52:05;12.30;;;4.20;;
69161;SDS011;56269;51.738;21.652;2022-11-25T05:54:50;30.88;;;9.18;;
69161;SDS011;56269;51.738;21.652;2022-11-25T05:57:35;31.58;;;9.65;;
69161;SDS011;56269;51.738;21.652;2022-11-25T06:00:19;42.97;;;10.70;;
69161;SDS011;56269;51.738;21.652;2022-11-25T06:03:04;31.85;;;9.63;;
69161;SDS011;56269;51.738;21.652;2022-11-25T06:05:49;29.63;;;8.25;;
69161;SDS011;56269;51.738;21.652;2022-11-25T06:08:34;40.92;;;11.35;;
69161;SDS011;56269;51.738;21.652;2022-11-25T06:11:21;46.27;;;12.20;;
69161;SDS011;56269;51.738;21.652;2022-11-25T06:14:06;33.20;;;9.23;;
69161;SDS011;56269;51.738;21.652;2022-11-25T06:16:51;42.78;;;10.85;;
69161;SDS011;56269;51.738;21.652;2022-11-25T06:19:36;33.63;;;9.95;;
69161;SDS011;56269;51.738;21.652;2022-11-25T06:22:21;38.78;;;10.27;;
69161;SDS011;56269;51.738;21.652;2022-11-25T06:25:06;32.63;;;9.77;;
69161;SDS011;56269;51.738;21.652;2022-11-25T06:27:54;19.52;;;6.82;;
69161;SDS011;56269;51.738;21.652;2022-11-25T06:30:39;32.65;;;9.27;;
69161;SDS011;56269;51.738;21.652;2022-11-25T06:33:24;33.67;;;9.00;;
69161;SDS011;56269;51.738;21.652;2022-11-25T06:36:09;33.25;;;11.10;;
69161;SDS011;56269;51.738;21.652;2022-11-25T06:39:00;27.60;;;6.83;;
69161;SDS011;56269;51.738;21.652;2022-11-25T06:41:45;35.15;;;9.57;;
69161;SDS011;56269;51.738;21.652;2022-11-25T06:44:30;33.15;;;10.52;;
69161;SDS011;56269;51.738;21.652;2022-11-25T06:47:15;35.47;;;11.38;;
69161;SDS011;56269;51.738;21.652;2022-11-25T06:50:00;38.88;;;10.65;;
69161;SDS011;56269;51.738;21.652;2022-11-25T06:52:45;13.10;;;5.20;;
69161;SDS011;56269;51.738;21.652;2022-11-25T06:55:29;32.13;;;7.85;;
69161;SDS011;56269;51.738;21.652;2022-11-25T06:58:16;42.40;;;11.15;;
69161;SDS011;56269;51.738;21.652;2022-11-25T07:01:05;45.30;;;13.02;;
69161;SDS011;56269;51.738;21.652;2022-11-25T07:03:53;38.63;;;10.55;;
69161;SDS011;56269;51.738;21.652;2022-11-25T07:06:39;40.73;;;11.47;;
69161;SDS011;56269;51.738;21.652;2022-11-25T07:09:24;40.45;;;11.63;;
69161;SDS011;56269;51.738;21.652;2022-11-25T07:12:08;42.13;;;11.60;;
69161;SDS011;56269;51.738;21.652;2022-11-25T07:14:55;34.38;;;10.95;;
69161;SDS011;56269;51.738;21.652;2022-11-25T07:17:40;51.15;;;13.27;;
69161;SDS011;56269;51.738;21.652;2022-11-25T07:20:25;42.77;;;12.20;;
69161;SDS011;56269;51.738;21.652;2022-11-25T07:23:10;36.65;;;11.38;;
69161;SDS011;56269;51.738;21.652;2022-11-25T07:26:00;44.33;;;11.95;;
69161;SDS011;56269;51.738;21.652;2022-11-25T07:28:51;39.03;;;10.75;;
69161;SDS011;56269;51.738;21.652;2022-11-25T07:31:38;38.30;;;11.30;;
69161;SDS011;56269;51.738;21.652;2022-11-25T07:34:24;36.00;;;9.70;;
69161;SDS011;56269;51.738;21.652;2022-11-25T07:37:10;38.67;;;10.88;;
69161;SDS011;56269;51.738;21.652;2022-11-25T07:39:54;28.42;;;9.25;;
69161;SDS011;56269;51.738;21.652;2022-11-25T07:42:39;35.70;;;10.27;;
69161;SDS011;56269;51.738;21.652;2022-11-25T07:45:24;37.40;;;10.60;;
69161;SDS011;56269;51.738;21.652;2022-11-25T07:48:10;42.33;;;11.73;;
69161;SDS011;56269;51.738;21.652;2022-11-25T07:50:55;41.78;;;12.00;;
69161;SDS011;56269;51.738;21.652;2022-11-25T07:53:40;32.75;;;10.23;;
69161;SDS011;56269;51.738;21.652;2022-11-25T07:56:32;24.83;;;6.07;;
69161;SDS011;56269;51.738;21.652;2022-11-25T07:59:26;37.63;;;10.13;;
69161;SDS011;56269;51.738;21.652;2022-11-25T08:02:10;31.13;;;9.37;;
69161;SDS011;56269;51.738;21.652;2022-11-25T08:04:56;25.38;;;9.18;;
69161;SDS011;56269;51.738;21.652;2022-11-25T08:07:40;27.92;;;8.50;;
69161;SDS011;56269;51.738;21.652;2022-11-25T08:10:25;37.58;;;11.05;;
69161;SDS011;56269;51.738;21.652;2022-11-25T08:13:10;19.70;;;6.68;;
69161;SDS011;56269;51.738;21.652;2022-11-25T08:15:57;30.53;;;9.97;;
69161;SDS011;56269;51.738;21.652;2022-11-25T08:18:42;20.23;;;5.78;;
69161;SDS011;56269;51.738;21.652;2022-11-25T08:21:27;33.33;;;10.15;;
69161;SDS011;56269;51.738;21.652;2022-11-25T08:24:16;23.73;;;6.60;;
69161;SDS011;56269;51.738;21.652;2022-11-25T08:27:03;36.08;;;9.63;;
69161;SDS011;56269;51.738;21.652;2022-11-25T08:29:48;23.70;;;8.10;;
69161;SDS011;56269;51.738;21.652;2022-11-25T08:32:38;40.10;;;9.85;;
69161;SDS011;56269;51.738;21.652;2022-11-25T08:35:23;27.42;;;8.80;;
69161;SDS011;56269;51.738;21.652;2022-11-25T08:38:09;27.73;;;7.97;;
69161;SDS011;56269;51.738;21.652;2022-11-25T08:40:55;25.58;;;8.40;;
69161;SDS011;56269;51.738;21.652;2022-11-25T08:43:40;32.63;;;9.67;;
69161;SDS011;56269;51.738;21.652;2022-11-25T08:46:28;27.60;;;7.50;;
69161;SDS011;56269;51.738;21.652;2022-11-25T08:49:16;18.25;;;4.78;;
69161;SDS011;56269;51.738;21.652;2022-11-25T08:52:02;29.40;;;7.97;;
69161;SDS011;56269;51.738;21.652;2022-11-25T08:54:29;27.20;;;9.57;;
69161;SDS011;56269;51.738;21.652;2022-11-25T08:56:55;22.67;;;7.73;;
69161;SDS011;56269;51.738;21.652;2022-11-25T08:59:21;26.75;;;7.75;;
69161;SDS011;56269;51.738;21.652;2022-11-25T09:01:47;31.13;;;8.63;;
69161;SDS011;56269;51.738;21.652;2022-11-25T09:04:13;28.73;;;8.43;;
69161;SDS011;56269;51.738;21.652;2022-11-25T09:06:39;27.37;;;8.37;;
69161;SDS011;56269;51.738;21.652;2022-11-25T09:09:07;28.77;;;8.40;;
69161;SDS011;56269;51.738;21.652;2022-11-25T09:11:33;26.38;;;8.50;;
69161;SDS011;56269;51.738;21.652;2022-11-25T09:13:59;23.85;;;7.53;;
69161;SDS011;56269;51.738;21.652;2022-11-25T09:16:26;27.87;;;8.37;;
69161;SDS011;56269;51.738;21.652;2022-11-25T09:18:52;29.30;;;8.57;;
69161;SDS011;56269;51.738;21.652;2022-11-25T09:21:18;24.92;;;7.70;;
69161;SDS011;56269;51.738;21.652;2022-11-25T09:23:44;28.38;;;8.82;;
69161;SDS011;56269;51.738;21.652;2022-11-25T09:26:23;35.08;;;9.75;;
69161;SDS011;56269;51.738;21.652;2022-11-25T09:28:54;29.13;;;8.53;;
69161;SDS011;56269;51.738;21.652;2022-11-25T09:31:22;29.20;;;8.43;;
69161;SDS011;56269;51.738;21.652;2022-11-25T09:33:48;33.05;;;10.20;;
69161;SDS011;56269;51.738;21.652;2022-11-25T09:36:15;25.35;;;7.57;;
69161;SDS011;56269;51.738;21.652;2022-11-25T09:38:43;30.52;;;10.18;;
69161;SDS011;56269;51.738;21.652;2022-11-25T09:41:23;30.37;;;9.37;;
69161;SDS011;56269;51.738;21.652;2022-11-25T09:47:11;30.55;;;9.30;;
69161;SDS011;56269;51.738;21.652;2022-11-25T09:49:47;32.78;;;9.63;;
69161;SDS011;56269;51.738;21.652;2022-11-25T09:52:43;30.90;;;9.18;;
69161;SDS011;56269;51.738;21.652;2022-11-25T09:55:32;33.60;;;9.37;;
69161;SDS011;56269;51.738;21.652;2022-11-25T09:58:15;30.05;;;9.50;;
69161;SDS011;56269;51.738;21.652;2022-11-25T10:00:51;37.05;;;9.98;;
69161;SDS011;56269;51.738;21.652;2022-11-25T10:06:02;31.00;;;9.05;;
69161;SDS011;56269;51.738;21.652;2022-11-25T10:08:37;38.70;;;10.10;;
69161;SDS011;56269;51.738;21.652;2022-11-25T10:11:21;36.95;;;10.43;;
69161;SDS011;56269;51.738;21.652;2022-11-25T10:14:11;33.83;;;10.63;;
69161;SDS011;56269;51.738;21.652;2022-11-25T10:19:42;36.58;;;10.73;;
69161;SDS011;56269;51.738;21.652;2022-11-25T10:22:30;35.80;;;10.53;;
69161;SDS011;56269;51.738;21.652;2022-11-25T10:28:11;42.78;;;11.45;;
69161;SDS011;56269;51.738;21.652;2022-11-25T10:38:30;41.67;;;11.73;;
69161;SDS011;56269;51.738;21.652;2022-11-25T10:41:08;35.88;;;10.75;;
69161;SDS011;56269;51.738;21.652;2022-11-25T10:43:40;44.03;;;10.40;;
69161;SDS011;56269;51.738;21.652;2022-11-25T10:49:14;36.20;;;9.00;;
69161;SDS011;56269;51.738;21.652;2022-11-25T10:51:58;42.78;;;12.98;;
69161;SDS011;56269;51.738;21.652;2022-11-25T10:54:26;41.85;;;11.48;;
69161;SDS011;56269;51.738;21.652;2022-11-25T10:57:02;48.10;;;12.50;;
69161;SDS011;56269;51.738;21.652;2022-11-25T10:59:44;47.33;;;13.23;;
69161;SDS011;56269;51.738;21.652;2022-11-25T11:05:01;43.35;;;11.43;;
69161;SDS011;56269;51.738;21.652;2022-11-25T11:07:35;36.58;;;10.38;;
69161;SDS011;56269;51.738;21.652;2022-11-25T11:10:26;38.05;;;9.85;;
69161;SDS011;56269;51.738;21.652;2022-11-25T11:12:56;47.70;;;11.07;;
69161;SDS011;56269;51.738;21.652;2022-11-25T11:18:28;43.45;;;11.45;;
69161;SDS011;56269;51.738;21.652;2022-11-25T11:21:06;41.15;;;11.95;;
69161;SDS011;56269;51.738;21.652;2022-11-25T11:23:49;38.50;;;11.60;;
69161;SDS011;56269;51.738;21.652;2022-11-25T11:26:22;48.83;;;12.18;;
69161;SDS011;56269;51.738;21.652;2022-11-25T11:28:58;43.87;;;11.37;;
69161;SDS011;56269;51.738;21.652;2022-11-25T11:31:47;33.80;;;10.38;;
69161;SDS011;56269;51.738;21.652;2022-11-25T11:34:25;44.17;;;12.82;;
69161;SDS011;56269;51.738;21.652;2022-11-25T11:48:40;37.80;;;10.50;;
69161;SDS011;56269;51.738;21.652;2022-11-25T11:54:45;44.40;;;11.38;;
69161;SDS011;56269;51.738;21.652;2022-11-25T11:57:38;44.97;;;10.97;;
69161;SDS011;56269;51.738;21.652;2022-11-25T12:00:12;42.55;;;10.70;;
69161;SDS011;56269;51.738;21.652;2022-11-25T12:05:29;47.95;;;13.52;;
69161;SDS011;56269;51.738;21.652;2022-11-25T12:08:01;49.08;;;13.27;;
69161;SDS011;56269;51.738;21.652;2022-11-25T12:10:33;40.00;;;12.50;;
69161;SDS011;56269;51.738;21.652;2022-11-25T12:16:04;49.97;;;13.73;;
69161;SDS011;56269;51.738;21.652;2022-11-25T12:18:38;48.47;;;13.30;;
69161;SDS011;56269;51.738;21.652;2022-11-25T12:21:12;43.10;;;12.15;;
69161;SDS011;56269;51.738;21.652;2022-11-25T12:29:35;55.60;;;14.30;;
69161;SDS011;56269;51.738;21.652;2022-11-25T12:32:16;48.17;;;13.32;;
69161;SDS011;56269;51.738;21.652;2022-11-25T12:34:57;46.35;;;13.52;;
69161;SDS011;56269;51.738;21.652;2022-11-25T12:37:33;51.97;;;14.17;;
69161;SDS011;56269;51.738;21.652;2022-11-25T12:40:06;53.60;;;15.65;;
69161;SDS011;56269;51.738;21.652;2022-11-25T12:42:38;43.53;;;12.70;;
69161;SDS011;56269;51.738;21.652;2022-11-25T12:45:24;62.38;;;17.98;;
69161;SDS011;56269;51.738;21.652;2022-11-25T12:47:51;53.42;;;15.55;;
69161;SDS011;56269;51.738;21.652;2022-11-25T12:53:49;47.95;;;12.57;;
69161;SDS011;56269;51.738;21.652;2022-11-25T15:29:38;78.23;;;23.70;;
69161;SDS011;56269;51.738;21.652;2022-11-25T15:32:07;92.88;;;27.25;;
69161;SDS011;56269;51.738;21.652;2022-11-25T15:34:39;127.47;;;32.72;;
69161;SDS011;56269;51.738;21.652;2022-11-25T15:37:07;125.57;;;31.17;;
69161;SDS011;56269;51.738;21.652;2022-11-25T15:39:35;116.72;;;30.75;;
69161;SDS011;56269;51.738;21.652;2022-11-25T15:47:29;75.63;;;22.75;;
69161;SDS011;56269;51.738;21.652;2022-11-25T15:50:02;112.72;;;29.50;;
69161;SDS011;56269;51.738;21.652;2022-11-25T15:52:38;66.85;;;21.10;;
69161;SDS011;56269;51.738;21.652;2022-11-25T15:55:07;71.77;;;18.17;;
69161;SDS011;56269;51.738;21.652;2022-11-25T15:57:48;82.45;;;26.30;;
69161;SDS011;56269;51.738;21.652;2022-11-25T16:00:19;78.07;;;21.88;;
69161;SDS011;56269;51.738;21.652;2022-11-25T16:02:51;83.68;;;21.02;;
69161;SDS011;56269;51.738;21.652;2022-11-25T16:21:28;101.40;;;27.60;;
69161;SDS011;56269;51.738;21.652;2022-11-25T16:26:48;89.47;;;26.13;;
69161;SDS011;56269;51.738;21.652;2022-11-25T16:29:40;86.28;;;25.02;;
69161;SDS011;56269;51.738;21.652;2022-11-25T16:32:15;103.57;;;28.88;;
69161;SDS011;56269;51.738;21.652;2022-11-25T16:34:43;108.10;;;32.53;;
69161;SDS011;56269;51.738;21.652;2022-11-25T16:37:10;97.40;;;28.98;;
69161;SDS011;56269;51.738;21.652;2022-11-25T16:39:36;89.47;;;27.38;;
69161;SDS011;56269;51.738;21.652;2022-11-25T16:42:03;100.25;;;29.42;;
69161;SDS011;56269;51.738;21.652;2022-11-25T16:44:32;100.30;;;30.33;;
69161;SDS011;56269;51.738;21.652;2022-11-25T16:47:00;102.87;;;28.83;;
69161;SDS011;56269;51.738;21.652;2022-11-25T16:49:28;103.72;;;30.13;;
69161;SDS011;56269;51.738;21.652;2022-11-25T16:51:56;119.88;;;32.80;;
69161;SDS011;56269;51.738;21.652;2022-11-25T16:54:22;113.95;;;32.53;;
69161;SDS011;56269;51.738;21.652;2022-11-25T16:56:50;107.70;;;31.17;;
69161;SDS011;56269;51.738;21.652;2022-11-25T16:59:19;97.20;;;26.40;;
69161;SDS011;56269;51.738;21.652;2022-11-25T17:01:51;94.38;;;25.70;;
69161;SDS011;56269;51.738;21.652;2022-11-25T17:04:17;108.05;;;28.30;;
69161;SDS011;56269;51.738;21.652;2022-11-25T17:06:44;111.50;;;30.17;;
69161;SDS011;56269;51.738;21.652;2022-11-25T17:09:11;128.80;;;36.28;;
69161;SDS011;56269;51.738;21.652;2022-11-25T17:11:48;92.93;;;27.40;;
69161;SDS011;56269;51.738;21.652;2022-11-25T17:14:22;103.95;;;26.65;;
69161;SDS011;56269;51.738;21.652;2022-11-25T17:16:53;109.18;;;27.73;;
69161;SDS011;56269;51.738;21.652;2022-11-25T17:19:19;88.60;;;23.63;;
69161;SDS011;56269;51.738;21.652;2022-11-25T17:21:46;89.03;;;23.10;;
69161;SDS011;56269;51.738;21.652;2022-11-25T17:24:19;109.93;;;29.73;;
69161;SDS011;56269;51.738;21.652;2022-11-25T17:26:57;88.07;;;22.42;;
69161;SDS011;56269;51.738;21.652;2022-11-25T17:29:34;75.78;;;22.60;;
69161;SDS011;56269;51.738;21.652;2022-11-25T17:32:04;92.85;;;26.45;;
69161;SDS011;56269;51.738;21.652;2022-11-25T17:34:31;102.47;;;29.33;;
69161;SDS011;56269;51.738;21.652;2022-11-25T17:36:57;94.43;;;28.93;;
69161;SDS011;56269;51.738;21.652;2022-11-25T17:39:23;85.05;;;23.60;;
69161;SDS011;56269;51.738;21.652;2022-11-25T17:41:49;103.53;;;26.95;;
69161;SDS011;56269;51.738;21.652;2022-11-25T17:44:26;110.47;;;27.63;;
69161;SDS011;56269;51.738;21.652;2022-11-25T17:46:54;86.97;;;25.88;;
69161;SDS011;56269;51.738;21.652;2022-11-25T17:49:21;88.13;;;25.37;;
69161;SDS011;56269;51.738;21.652;2022-11-25T17:51:48;87.85;;;23.23;;
69161;SDS011;56269;51.738;21.652;2022-11-25T17:54:14;106.53;;;25.13;;
69161;SDS011;56269;51.738;21.652;2022-11-25T17:56:43;107.55;;;25.42;;
69161;SDS011;56269;51.738;21.652;2022-11-25T17:59:13;77.05;;;23.15;;
69161;SDS011;56269;51.738;21.652;2022-11-25T18:01:45;95.20;;;26.53;;
69161;SDS011;56269;51.738;21.652;2022-11-25T18:04:12;85.55;;;21.02;;
69161;SDS011;56269;51.738;21.652;2022-11-25T18:06:49;102.85;;;28.67;;
69161;SDS011;56269;51.738;21.652;2022-11-25T18:09:16;99.07;;;26.88;;
69161;SDS011;56269;51.738;21.652;2022-11-25T18:11:43;87.07;;;25.92;;
69161;SDS011;56269;51.738;21.652;2022-11-25T18:14:15;114.93;;;29.03;;
69161;SDS011;56269;51.738;21.652;2022-11-25T18:16:51;104.00;;;29.30;;
69161;SDS011;56269;51.738;21.652;2022-11-25T18:19:17;89.18;;;26.60;;
69161;SDS011;56269;51.738;21.652;2022-11-25T18:21:44;115.18;;;33.45;;
69161;SDS011;56269;51.738;21.652;2022-11-25T18:24:10;89.28;;;26.00;;
69161;SDS011;56269;51.738;21.652;2022-11-25T18:26:40;97.13;;;27.97;;
69161;SDS011;56269;51.738;21.652;2022-11-25T18:29:16;76.88;;;23.95;;
69161;SDS011;56269;51.738;21.652;2022-11-25T18:31:49;81.03;;;25.83;;
69161;SDS011;56269;51.738;21.652;2022-11-25T18:34:17;112.55;;;32.35;;
69161;SDS011;56269;51.738;21.652;2022-11-25T18:36:44;109.68;;;29.60;;
69161;SDS011;56269;51.738;21.652;2022-11-25T18:39:10;84.70;;;26.93;;
69161;SDS011;56269;51.738;21.652;2022-11-25T18:41:38;99.53;;;30.45;;
69161;SDS011;56269;51.738;21.652;2022-11-25T18:44:06;85.65;;;28.35;;
69161;SDS011;56269;51.738;21.652;2022-11-25T18:46:39;115.55;;;32.13;;
69161;SDS011;56269;51.738;21.652;2022-11-25T18:49:11;121.80;;;31.58;;
69161;SDS011;56269;51.738;21.652;2022-11-25T18:51:40;92.13;;;26.70;;
69161;SDS011;56269;51.738;21.652;2022-11-25T18:54:07;102.82;;;27.50;;
69161;SDS011;56269;51.738;21.652;2022-11-25T18:56:35;98.32;;;29.90;;
69161;SDS011;56269;51.738;21.652;2022-11-25T18:59:03;83.43;;;23.63;;
69161;SDS011;56269;51.738;21.652;2022-11-25T19:01:31;87.32;;;23.45;;
69161;SDS011;56269;51.738;21.652;2022-11-25T19:03:58;72.33;;;20.10;;
69161;SDS011;56269;51.738;21.652;2022-11-25T19:06:25;68.45;;;18.13;;
69161;SDS011;56269;51.738;21.652;2022-11-25T19:08:55;79.35;;;20.90;;
69161;SDS011;56269;51.738;21.652;2022-11-25T19:11:26;83.97;;;22.70;;
69161;SDS011;56269;51.738;21.652;2022-11-25T19:13:56;88.63;;;23.25;;
69161;SDS011;56269;51.738;21.652;2022-11-25T19:16:29;61.30;;;18.40;;
69161;SDS011;56269;51.738;21.652;2022-11-25T19:18:56;87.38;;;25.60;;
69161;SDS011;56269;51.738;21.652;2022-11-25T19:21:22;93.50;;;26.10;;